sensor_id;sensor_type;location;lat;lon;timestamp;temperature;humidity
48998;DHT22;34807;51.456;7.244;2022-08-07T00:01:03;18.40;68.20
48998;DHT22;34807;51.456;7.244;2022-08-07T00:03:28;18.40;68.30
48998;DHT22;34807;51.456;7.244;2022-08-07T00:05:54;18.30;68.30
48998;DHT22;34807;51.456;7.244;2022-08-07T00:08:20;18.30;68.30
48998;DHT22;34807;51.456;7.244;2022-08-07T00:10:47;18.30;68.30
48998;DHT22;34807;51.456;7.244;2022-08-07T00:13:12;18.30;68.30
48998;DHT22;34807;51.456;7.244;2022-08-07T00:15:38;18.30;68.60
48998;DHT22;34807;51.456;7.244;2022-08-07T00:18:04;18.20;68.60
48998;DHT22;34807;51.456;7.244;2022-08-07T00:20:29;18.20;68.50
48998;DHT22;34807;51.456;7.244;2022-08-07T00:22:55;18.20;68.70
48998;DHT22;34807;51.456;7.244;2022-08-07T00:25:20;18.20;68.70
48998;DHT22;34807;51.456;7.244;2022-08-07T00:27:49;18.20;68.70
48998;DHT22;34807;51.456;7.244;2022-08-07T00:30:14;18.20;68.70
48998;DHT22;34807;51.456;7.244;2022-08-07T00:32:40;18.10;68.70
48998;DHT22;34807;51.456;7.244;2022-08-07T00:35:06;18.10;68.90
48998;DHT22;34807;51.456;7.244;2022-08-07T00:37:31;18.10;68.80
48998;DHT22;34807;51.456;7.244;2022-08-07T00:39:57;18.10;68.90
48998;DHT22;34807;51.456;7.244;2022-08-07T00:42:23;18.10;68.90
48998;DHT22;34807;51.456;7.244;2022-08-07T00:44:49;18.00;68.90
48998;DHT22;34807;51.456;7.244;2022-08-07T00:47:14;18.00;69.00
48998;DHT22;34807;51.456;7.244;2022-08-07T00:49:39;18.00;69.00
48998;DHT22;34807;51.456;7.244;2022-08-07T00:52:07;18.00;69.00
48998;DHT22;34807;51.456;7.244;2022-08-07T00:54:33;18.00;69.10
48998;DHT22;34807;51.456;7.244;2022-08-07T00:56:59;18.00;69.10
48998;DHT22;34807;51.456;7.244;2022-08-07T00:59:24;18.00;69.10
48998;DHT22;34807;51.456;7.244;2022-08-07T01:01:50;17.90;69.20
48998;DHT22;34807;51.456;7.244;2022-08-07T01:04:16;17.90;69.20
48998;DHT22;34807;51.456;7.244;2022-08-07T01:06:42;17.90;69.20
48998;DHT22;34807;51.456;7.244;2022-08-07T01:09:08;17.90;69.30
48998;DHT22;34807;51.456;7.244;2022-08-07T01:11:37;17.90;69.30
48998;DHT22;34807;51.456;7.244;2022-08-07T01:14:02;17.80;69.30
48998;DHT22;34807;51.456;7.244;2022-08-07T01:16:28;17.80;69.30
48998;DHT22;34807;51.456;7.244;2022-08-07T01:18:53;17.80;69.40
48998;DHT22;34807;51.456;7.244;2022-08-07T01:21:19;17.80;69.40
48998;DHT22;34807;51.456;7.244;2022-08-07T01:23:48;17.80;69.50
48998;DHT22;34807;51.456;7.244;2022-08-07T01:26:14;17.70;69.50
48998;DHT22;34807;51.456;7.244;2022-08-07T01:28:41;17.70;69.60
48998;DHT22;34807;51.456;7.244;2022-08-07T01:31:07;17.70;69.50
48998;DHT22;34807;51.456;7.244;2022-08-07T01:33:33;17.70;69.60
48998;DHT22;34807;51.456;7.244;2022-08-07T01:35:59;17.70;69.70
48998;DHT22;34807;51.456;7.244;2022-08-07T01:38:26;17.70;69.70
48998;DHT22;34807;51.456;7.244;2022-08-07T01:40:53;17.70;69.70
48998;DHT22;34807;51.456;7.244;2022-08-07T01:43:19;17.60;69.70
48998;DHT22;34807;51.456;7.244;2022-08-07T01:45:45;17.60;69.70
48998;DHT22;34807;51.456;7.244;2022-08-07T01:48:10;17.60;69.80
48998;DHT22;34807;51.456;7.244;2022-08-07T01:50:36;17.60;69.80
48998;DHT22;34807;51.456;7.244;2022-08-07T01:53:02;17.60;69.80
48998;DHT22;34807;51.456;7.244;2022-08-07T01:55:33;17.60;69.90
48998;DHT22;34807;51.456;7.244;2022-08-07T01:58:00;17.50;69.90
48998;DHT22;34807;51.456;7.244;2022-08-07T02:00:27;17.50;69.90
48998;DHT22;34807;51.456;7.244;2022-08-07T02:02:54;17.50;69.90
48998;DHT22;34807;51.456;7.244;2022-08-07T02:05:22;17.50;70.00
48998;DHT22;34807;51.456;7.244;2022-08-07T02:07:49;17.50;70.00
48998;DHT22;34807;51.456;7.244;2022-08-07T02:10:16;17.40;70.00
48998;DHT22;34807;51.456;7.244;2022-08-07T02:12:42;17.40;70.00
48998;DHT22;34807;51.456;7.244;2022-08-07T02:15:09;17.40;70.00
48998;DHT22;34807;51.456;7.244;2022-08-07T02:17:36;17.40;70.10
48998;DHT22;34807;51.456;7.244;2022-08-07T02:20:02;17.40;70.10
48998;DHT22;34807;51.456;7.244;2022-08-07T02:22:28;17.40;70.20
48998;DHT22;34807;51.456;7.244;2022-08-07T02:24:55;17.40;70.20
48998;DHT22;34807;51.456;7.244;2022-08-07T02:27:22;17.30;70.80
48998;DHT22;34807;51.456;7.244;2022-08-07T02:29:48;17.40;70.20
48998;DHT22;34807;51.456;7.244;2022-08-07T02:32:15;17.30;70.20
48998;DHT22;34807;51.456;7.244;2022-08-07T02:34:41;17.30;70.40
48998;DHT22;34807;51.456;7.244;2022-08-07T02:37:08;17.30;70.30
48998;DHT22;34807;51.456;7.244;2022-08-07T02:39:41;17.20;70.30
48998;DHT22;34807;51.456;7.244;2022-08-07T02:42:07;17.20;70.30
48998;DHT22;34807;51.456;7.244;2022-08-07T02:44:33;17.20;70.40
48998;DHT22;34807;51.456;7.244;2022-08-07T02:47:00;17.20;70.40
48998;DHT22;34807;51.456;7.244;2022-08-07T02:49:27;17.20;70.60
48998;DHT22;34807;51.456;7.244;2022-08-07T02:51:52;17.20;71.20
48998;DHT22;34807;51.456;7.244;2022-08-07T02:54:19;17.20;70.50
48998;DHT22;34807;51.456;7.244;2022-08-07T02:56:46;17.20;70.50
48998;DHT22;34807;51.456;7.244;2022-08-07T02:59:13;17.10;70.50
48998;DHT22;34807;51.456;7.244;2022-08-07T03:01:41;17.10;70.50
48998;DHT22;34807;51.456;7.244;2022-08-07T03:04:07;17.10;70.50
48998;DHT22;34807;51.456;7.244;2022-08-07T03:06:33;17.10;70.60
48998;DHT22;34807;51.456;7.244;2022-08-07T03:09:00;17.10;70.70
48998;DHT22;34807;51.456;7.244;2022-08-07T03:11:25;17.10;70.60
48998;DHT22;34807;51.456;7.244;2022-08-07T03:13:51;17.10;70.60
48998;DHT22;34807;51.456;7.244;2022-08-07T03:16:17;17.10;70.70
48998;DHT22;34807;51.456;7.244;2022-08-07T03:18:43;17.00;70.70
48998;DHT22;34807;51.456;7.244;2022-08-07T03:21:08;17.00;70.70
48998;DHT22;34807;51.456;7.244;2022-08-07T03:23:34;17.00;70.80
48998;DHT22;34807;51.456;7.244;2022-08-07T03:26:01;17.00;70.80
48998;DHT22;34807;51.456;7.244;2022-08-07T03:28:26;16.90;70.70
48998;DHT22;34807;51.456;7.244;2022-08-07T03:30:53;17.00;70.80
48998;DHT22;34807;51.456;7.244;2022-08-07T03:33:39;17.00;70.90
48998;DHT22;34807;51.456;7.244;2022-08-07T03:36:05;16.90;70.80
48998;DHT22;34807;51.456;7.244;2022-08-07T03:38:31;16.90;70.90
48998;DHT22;34807;51.456;7.244;2022-08-07T03:40:57;16.90;70.90
48998;DHT22;34807;51.456;7.244;2022-08-07T03:43:24;16.90;70.90
48998;DHT22;34807;51.456;7.244;2022-08-07T03:45:50;16.90;70.90
48998;DHT22;34807;51.456;7.244;2022-08-07T03:48:15;16.80;70.80
48998;DHT22;34807;51.456;7.244;2022-08-07T03:50:41;16.80;70.90
48998;DHT22;34807;51.456;7.244;2022-08-07T03:53:08;16.80;71.00
48998;DHT22;34807;51.456;7.244;2022-08-07T03:55:33;16.80;71.00
48998;DHT22;34807;51.456;7.244;2022-08-07T03:57:59;16.80;70.90
48998;DHT22;34807;51.456;7.244;2022-08-07T04:00:25;16.80;71.00
48998;DHT22;34807;51.456;7.244;2022-08-07T04:02:51;16.80;71.10
48998;DHT22;34807;51.456;7.244;2022-08-07T04:05:18;16.80;71.00
48998;DHT22;34807;51.456;7.244;2022-08-07T04:07:44;16.80;71.10
48998;DHT22;34807;51.456;7.244;2022-08-07T04:10:10;16.70;71.00
48998;DHT22;34807;51.456;7.244;2022-08-07T04:12:36;16.70;71.10
48998;DHT22;34807;51.456;7.244;2022-08-07T04:15:01;16.70;71.10
48998;DHT22;34807;51.456;7.244;2022-08-07T04:17:27;16.70;71.10
48998;DHT22;34807;51.456;7.244;2022-08-07T04:19:53;16.70;71.20
48998;DHT22;34807;51.456;7.244;2022-08-07T04:22:18;16.70;71.10
48998;DHT22;34807;51.456;7.244;2022-08-07T04:24:44;16.70;71.20
48998;DHT22;34807;51.456;7.244;2022-08-07T04:27:10;16.60;71.10
48998;DHT22;34807;51.456;7.244;2022-08-07T04:29:35;16.60;71.10
48998;DHT22;34807;51.456;7.244;2022-08-07T04:32:01;16.60;71.10
48998;DHT22;34807;51.456;7.244;2022-08-07T04:34:27;16.60;71.20
48998;DHT22;34807;51.456;7.244;2022-08-07T04:36:53;16.60;71.30
48998;DHT22;34807;51.456;7.244;2022-08-07T04:39:18;16.60;71.20
48998;DHT22;34807;51.456;7.244;2022-08-07T04:41:44;16.60;71.30
48998;DHT22;34807;51.456;7.244;2022-08-07T04:44:09;16.60;71.30
48998;DHT22;34807;51.456;7.244;2022-08-07T04:46:37;16.60;71.30
48998;DHT22;34807;51.456;7.244;2022-08-07T04:49:19;16.60;71.30
48998;DHT22;34807;51.456;7.244;2022-08-07T04:54:31;16.60;71.30
48998;DHT22;34807;51.456;7.244;2022-08-07T04:57:10;16.60;71.30
48998;DHT22;34807;51.456;7.244;2022-08-07T04:59:42;16.60;71.40
48998;DHT22;34807;51.456;7.244;2022-08-07T05:02:09;16.60;71.50
48998;DHT22;34807;51.456;7.244;2022-08-07T05:07:10;16.50;71.30
48998;DHT22;34807;51.456;7.244;2022-08-07T05:12:09;16.50;71.40
48998;DHT22;34807;51.456;7.244;2022-08-07T05:14:43;16.50;71.40
48998;DHT22;34807;51.456;7.244;2022-08-07T05:17:11;16.50;71.50
48998;DHT22;34807;51.456;7.244;2022-08-07T05:19:39;16.50;71.50
48998;DHT22;34807;51.456;7.244;2022-08-07T05:22:07;16.50;71.50
48998;DHT22;34807;51.456;7.244;2022-08-07T05:24:32;16.50;71.40
48998;DHT22;34807;51.456;7.244;2022-08-07T05:26:59;16.50;71.50
48998;DHT22;34807;51.456;7.244;2022-08-07T05:29:26;16.50;71.50
48998;DHT22;34807;51.456;7.244;2022-08-07T05:31:52;16.50;71.50
48998;DHT22;34807;51.456;7.244;2022-08-07T05:34:18;16.50;71.50
48998;DHT22;34807;51.456;7.244;2022-08-07T05:36:47;16.50;71.60
48998;DHT22;34807;51.456;7.244;2022-08-07T05:39:14;16.50;71.60
48998;DHT22;34807;51.456;7.244;2022-08-07T05:41:40;16.50;71.50
48998;DHT22;34807;51.456;7.244;2022-08-07T05:44:07;16.50;71.50
48998;DHT22;34807;51.456;7.244;2022-08-07T05:46:33;16.50;71.60
48998;DHT22;34807;51.456;7.244;2022-08-07T05:48:59;16.50;71.60
48998;DHT22;34807;51.456;7.244;2022-08-07T05:51:25;16.50;71.70
48998;DHT22;34807;51.456;7.244;2022-08-07T05:53:50;16.50;71.80
48998;DHT22;34807;51.456;7.244;2022-08-07T05:56:17;16.50;71.70
48998;DHT22;34807;51.456;7.244;2022-08-07T05:58:43;16.50;71.80
48998;DHT22;34807;51.456;7.244;2022-08-07T06:01:11;16.50;71.80
48998;DHT22;34807;51.456;7.244;2022-08-07T06:03:38;16.50;71.90
48998;DHT22;34807;51.456;7.244;2022-08-07T06:06:04;16.50;71.90
48998;DHT22;34807;51.456;7.244;2022-08-07T06:08:30;16.50;71.80
48998;DHT22;34807;51.456;7.244;2022-08-07T06:10:56;16.50;71.90
48998;DHT22;34807;51.456;7.244;2022-08-07T06:13:22;16.50;71.90
48998;DHT22;34807;51.456;7.244;2022-08-07T06:15:48;16.50;71.90
48998;DHT22;34807;51.456;7.244;2022-08-07T06:18:13;16.50;71.80
48998;DHT22;34807;51.456;7.244;2022-08-07T06:20:40;16.50;71.80
48998;DHT22;34807;51.456;7.244;2022-08-07T06:23:06;16.50;71.90
48998;DHT22;34807;51.456;7.244;2022-08-07T06:25:32;16.50;72.00
48998;DHT22;34807;51.456;7.244;2022-08-07T06:28:05;16.40;72.00
48998;DHT22;34807;51.456;7.244;2022-08-07T06:30:31;16.50;72.10
48998;DHT22;34807;51.456;7.244;2022-08-07T06:32:57;16.50;72.10
48998;DHT22;34807;51.456;7.244;2022-08-07T06:35:23;16.50;72.10
48998;DHT22;34807;51.456;7.244;2022-08-07T06:37:48;16.50;72.10
48998;DHT22;34807;51.456;7.244;2022-08-07T06:40:14;16.50;72.10
48998;DHT22;34807;51.456;7.244;2022-08-07T06:42:39;16.50;72.10
48998;DHT22;34807;51.456;7.244;2022-08-07T06:45:08;16.60;72.10
48998;DHT22;34807;51.456;7.244;2022-08-07T06:47:34;16.60;72.00
48998;DHT22;34807;51.456;7.244;2022-08-07T06:50:00;16.60;72.00
48998;DHT22;34807;51.456;7.244;2022-08-07T06:52:29;16.60;72.00
48998;DHT22;34807;51.456;7.244;2022-08-07T06:54:57;16.60;72.10
48998;DHT22;34807;51.456;7.244;2022-08-07T06:57:23;16.60;72.00
48998;DHT22;34807;51.456;7.244;2022-08-07T06:59:49;16.60;71.90
48998;DHT22;34807;51.456;7.244;2022-08-07T07:02:20;16.60;71.90
48998;DHT22;34807;51.456;7.244;2022-08-07T07:04:46;16.60;72.00
48998;DHT22;34807;51.456;7.244;2022-08-07T07:07:12;16.70;71.80
48998;DHT22;34807;51.456;7.244;2022-08-07T07:09:43;16.70;71.90
48998;DHT22;34807;51.456;7.244;2022-08-07T07:17:15;16.70;71.70
48998;DHT22;34807;51.456;7.244;2022-08-07T07:19:45;16.80;71.70
48998;DHT22;34807;51.456;7.244;2022-08-07T07:22:11;16.80;71.70
48998;DHT22;34807;51.456;7.244;2022-08-07T07:24:38;16.80;71.70
48998;DHT22;34807;51.456;7.244;2022-08-07T07:27:05;16.80;71.60
48998;DHT22;34807;51.456;7.244;2022-08-07T07:29:32;16.80;71.60
48998;DHT22;34807;51.456;7.244;2022-08-07T07:31:59;16.80;71.50
48998;DHT22;34807;51.456;7.244;2022-08-07T07:34:28;16.90;71.50
48998;DHT22;34807;51.456;7.244;2022-08-07T07:36:55;16.90;71.40
48998;DHT22;34807;51.456;7.244;2022-08-07T07:39:22;16.90;71.30
48998;DHT22;34807;51.456;7.244;2022-08-07T07:41:49;16.90;71.40
48998;DHT22;34807;51.456;7.244;2022-08-07T07:44:15;17.00;71.20
48998;DHT22;34807;51.456;7.244;2022-08-07T07:46:42;17.00;71.10
48998;DHT22;34807;51.456;7.244;2022-08-07T07:49:08;17.00;71.10
48998;DHT22;34807;51.456;7.244;2022-08-07T07:51:35;17.10;71.10
48998;DHT22;34807;51.456;7.244;2022-08-07T07:54:01;17.10;71.00
48998;DHT22;34807;51.456;7.244;2022-08-07T07:56:27;17.10;70.90
48998;DHT22;34807;51.456;7.244;2022-08-07T07:58:54;17.10;70.80
48998;DHT22;34807;51.456;7.244;2022-08-07T08:01:20;17.20;70.80
48998;DHT22;34807;51.456;7.244;2022-08-07T08:03:46;17.20;70.80
48998;DHT22;34807;51.456;7.244;2022-08-07T08:06:13;17.20;70.60
48998;DHT22;34807;51.456;7.244;2022-08-07T08:08:39;17.20;70.60
48998;DHT22;34807;51.456;7.244;2022-08-07T08:11:09;17.30;70.60
48998;DHT22;34807;51.456;7.244;2022-08-07T08:13:40;17.30;70.50
48998;DHT22;34807;51.456;7.244;2022-08-07T08:16:06;17.30;70.30
48998;DHT22;34807;51.456;7.244;2022-08-07T08:18:32;17.30;70.30
48998;DHT22;34807;51.456;7.244;2022-08-07T08:21:00;17.40;70.20
48998;DHT22;34807;51.456;7.244;2022-08-07T08:23:27;17.40;70.10
48998;DHT22;34807;51.456;7.244;2022-08-07T08:26:11;17.40;70.10
48998;DHT22;34807;51.456;7.244;2022-08-07T08:28:57;17.50;70.00
48998;DHT22;34807;51.456;7.244;2022-08-07T08:31:33;17.50;70.00
48998;DHT22;34807;51.456;7.244;2022-08-07T08:34:01;17.50;69.80
48998;DHT22;34807;51.456;7.244;2022-08-07T08:36:29;17.50;69.70
48998;DHT22;34807;51.456;7.244;2022-08-07T08:38:54;17.60;69.70
48998;DHT22;34807;51.456;7.244;2022-08-07T08:41:26;17.60;69.70
48998;DHT22;34807;51.456;7.244;2022-08-07T08:46:25;17.70;69.50
48998;DHT22;34807;51.456;7.244;2022-08-07T08:48:58;17.70;69.30
48998;DHT22;34807;51.456;7.244;2022-08-07T08:54:05;17.80;69.20
48998;DHT22;34807;51.456;7.244;2022-08-07T08:56:35;17.80;69.20
48998;DHT22;34807;51.456;7.244;2022-08-07T08:59:03;17.80;69.00
48998;DHT22;34807;51.456;7.244;2022-08-07T09:01:35;17.90;69.00
48998;DHT22;34807;51.456;7.244;2022-08-07T09:11:53;18.00;68.70
48998;DHT22;34807;51.456;7.244;2022-08-07T09:14:24;18.00;68.60
48998;DHT22;34807;51.456;7.244;2022-08-07T09:19:54;18.10;68.50
48998;DHT22;34807;51.456;7.244;2022-08-07T09:25:05;18.20;68.20
48998;DHT22;34807;51.456;7.244;2022-08-07T09:30:06;18.30;68.00
48998;DHT22;34807;51.456;7.244;2022-08-07T09:40:41;18.50;67.60
48998;DHT22;34807;51.456;7.244;2022-08-07T09:51:05;18.70;67.20
48998;DHT22;34807;51.456;7.244;2022-08-07T09:53:35;18.70;67.10
48998;DHT22;34807;51.456;7.244;2022-08-07T10:21:48;19.30;65.60
48998;DHT22;34807;51.456;7.244;2022-08-07T10:39:32;19.80;65.80
48998;DHT22;34807;51.456;7.244;2022-08-07T10:42:06;19.80;65.80
48998;DHT22;34807;51.456;7.244;2022-08-07T10:47:23;20.00;66.00
48998;DHT22;34807;51.456;7.244;2022-08-07T10:49:57;20.10;65.80
48998;DHT22;34807;51.456;7.244;2022-08-07T10:52:30;20.10;65.00
48998;DHT22;34807;51.456;7.244;2022-08-07T10:54:58;20.20;65.40
48998;DHT22;34807;51.456;7.244;2022-08-07T10:57:31;20.30;65.80
48998;DHT22;34807;51.456;7.244;2022-08-07T11:00:10;20.40;65.40
48998;DHT22;34807;51.456;7.244;2022-08-07T11:02:57;20.50;65.60
48998;DHT22;34807;51.456;7.244;2022-08-07T11:11:08;20.90;65.80
48998;DHT22;34807;51.456;7.244;2022-08-07T11:13:42;21.00;65.90
48998;DHT22;34807;51.456;7.244;2022-08-07T11:16:14;21.10;65.50
48998;DHT22;34807;51.456;7.244;2022-08-07T11:18:41;21.30;65.60
48998;DHT22;34807;51.456;7.244;2022-08-07T11:26:12;21.60;65.80
48998;DHT22;34807;51.456;7.244;2022-08-07T11:28:39;21.70;65.10
48998;DHT22;34807;51.456;7.244;2022-08-07T11:31:09;21.80;65.80
48998;DHT22;34807;51.456;7.244;2022-08-07T11:39:28;22.20;65.30
48998;DHT22;34807;51.456;7.244;2022-08-07T11:41:27;22.20;65.10
48998;DHT22;34807;51.456;7.244;2022-08-07T11:59:46;22.90;64.80
48998;DHT22;34807;51.456;7.244;2022-08-07T12:09:48;23.20;64.90
48998;DHT22;34807;51.456;7.244;2022-08-07T12:12:18;23.30;65.30
48998;DHT22;34807;51.456;7.244;2022-08-07T12:14:51;23.30;65.20
48998;DHT22;34807;51.456;7.244;2022-08-07T12:17:19;23.40;65.10
48998;DHT22;34807;51.456;7.244;2022-08-07T12:19:50;23.50;65.10
48998;DHT22;34807;51.456;7.244;2022-08-07T12:24:58;23.60;65.00
48998;DHT22;34807;51.456;7.244;2022-08-07T12:27:47;23.70;65.00
48998;DHT22;34807;51.456;7.244;2022-08-07T12:30:13;23.80;64.90
48998;DHT22;34807;51.456;7.244;2022-08-07T12:35:07;23.90;64.70
48998;DHT22;34807;51.456;7.244;2022-08-07T12:37:33;24.00;64.50
48998;DHT22;34807;51.456;7.244;2022-08-07T12:40:00;24.00;64.50
48998;DHT22;34807;51.456;7.244;2022-08-07T12:42:26;24.10;64.50
48998;DHT22;34807;51.456;7.244;2022-08-07T12:44:52;24.20;64.60
48998;DHT22;34807;51.456;7.244;2022-08-07T12:47:39;24.20;64.70
48998;DHT22;34807;51.456;7.244;2022-08-07T12:52:37;24.40;64.70
48998;DHT22;34807;51.456;7.244;2022-08-07T12:57:37;24.50;64.30
48998;DHT22;34807;51.456;7.244;2022-08-07T13:00:05;24.50;64.40
48998;DHT22;34807;51.456;7.244;2022-08-07T13:07:56;24.70;62.90
48998;DHT22;34807;51.456;7.244;2022-08-07T13:20:28;24.90;63.00
48998;DHT22;34807;51.456;7.244;2022-08-07T13:22:57;25.00;64.10
48998;DHT22;34807;51.456;7.244;2022-08-07T13:25:31;25.00;64.10
48998;DHT22;34807;51.456;7.244;2022-08-07T13:28:02;25.00;64.20
48998;DHT22;34807;51.456;7.244;2022-08-07T13:30:28;25.00;62.20
48998;DHT22;34807;51.456;7.244;2022-08-07T13:35:23;25.20;63.70
48998;DHT22;34807;51.456;7.244;2022-08-07T13:42:51;25.30;62.30
48998;DHT22;34807;51.456;7.244;2022-08-07T13:45:19;25.30;62.30
48998;DHT22;34807;51.456;7.244;2022-08-07T13:47:46;25.40;62.00
48998;DHT22;34807;51.456;7.244;2022-08-07T13:50:12;25.40;61.00
48998;DHT22;34807;51.456;7.244;2022-08-07T13:52:39;25.50;60.60
48998;DHT22;34807;51.456;7.244;2022-08-07T13:55:10;25.60;61.00
48998;DHT22;34807;51.456;7.244;2022-08-07T13:57:37;25.60;59.30
48998;DHT22;34807;51.456;7.244;2022-08-07T14:00:03;25.60;58.60
48998;DHT22;34807;51.456;7.244;2022-08-07T14:02:32;25.60;59.60
48998;DHT22;34807;51.456;7.244;2022-08-07T14:05:00;25.60;57.10
48998;DHT22;34807;51.456;7.244;2022-08-07T14:07:27;25.60;60.10
48998;DHT22;34807;51.456;7.244;2022-08-07T14:09:54;25.70;59.80
48998;DHT22;34807;51.456;7.244;2022-08-07T14:12:27;25.70;59.30
48998;DHT22;34807;51.456;7.244;2022-08-07T14:14:55;25.70;58.90
48998;DHT22;34807;51.456;7.244;2022-08-07T14:17:23;25.70;58.10
48998;DHT22;34807;51.456;7.244;2022-08-07T14:19:57;25.80;58.70
48998;DHT22;34807;51.456;7.244;2022-08-07T14:22:24;25.80;58.80
48998;DHT22;34807;51.456;7.244;2022-08-07T14:25:14;25.90;57.10
48998;DHT22;34807;51.456;7.244;2022-08-07T14:27:44;26.00;56.70
48998;DHT22;34807;51.456;7.244;2022-08-07T14:30:11;26.00;57.30
48998;DHT22;34807;51.456;7.244;2022-08-07T14:32:42;26.00;57.00
48998;DHT22;34807;51.456;7.244;2022-08-07T14:35:17;26.10;56.20
48998;DHT22;34807;51.456;7.244;2022-08-07T14:37:44;26.20;56.40
48998;DHT22;34807;51.456;7.244;2022-08-07T14:40:13;26.20;55.40
48998;DHT22;34807;51.456;7.244;2022-08-07T14:42:39;26.20;54.20
48998;DHT22;34807;51.456;7.244;2022-08-07T14:45:06;26.20;53.90
48998;DHT22;34807;51.456;7.244;2022-08-07T14:47:32;26.30;52.30
48998;DHT22;34807;51.456;7.244;2022-08-07T14:49:58;26.30;48.70
48998;DHT22;34807;51.456;7.244;2022-08-07T14:52:26;26.40;47.40
48998;DHT22;34807;51.456;7.244;2022-08-07T14:54:54;26.50;47.30
48998;DHT22;34807;51.456;7.244;2022-08-07T14:57:21;26.60;46.60
48998;DHT22;34807;51.456;7.244;2022-08-07T14:59:48;26.60;47.20
48998;DHT22;34807;51.456;7.244;2022-08-07T15:02:16;26.80;46.30
48998;DHT22;34807;51.456;7.244;2022-08-07T15:04:45;26.90;45.70
48998;DHT22;34807;51.456;7.244;2022-08-07T15:07:16;27.00;45.40
48998;DHT22;34807;51.456;7.244;2022-08-07T15:09:42;27.10;44.80
48998;DHT22;34807;51.456;7.244;2022-08-07T15:12:10;27.30;45.30
48998;DHT22;34807;51.456;7.244;2022-08-07T15:14:36;27.40;45.60
48998;DHT22;34807;51.456;7.244;2022-08-07T15:17:17;27.60;46.30
48998;DHT22;34807;51.456;7.244;2022-08-07T15:20:02;27.70;46.00
48998;DHT22;34807;51.456;7.244;2022-08-07T15:22:30;27.80;46.40
48998;DHT22;34807;51.456;7.244;2022-08-07T15:24:56;28.00;46.30
48998;DHT22;34807;51.456;7.244;2022-08-07T15:27:23;28.20;45.10
48998;DHT22;34807;51.456;7.244;2022-08-07T15:29:50;28.30;45.10
48998;DHT22;34807;51.456;7.244;2022-08-07T15:32:16;28.50;44.80
48998;DHT22;34807;51.456;7.244;2022-08-07T15:34:45;28.60;44.00
48998;DHT22;34807;51.456;7.244;2022-08-07T15:37:12;28.60;43.00
48998;DHT22;34807;51.456;7.244;2022-08-07T15:39:39;28.70;44.30
48998;DHT22;34807;51.456;7.244;2022-08-07T15:42:06;28.80;42.90
48998;DHT22;34807;51.456;7.244;2022-08-07T15:44:42;28.90;42.50
48998;DHT22;34807;51.456;7.244;2022-08-07T15:47:08;29.10;43.10
48998;DHT22;34807;51.456;7.244;2022-08-07T15:49:34;29.20;43.30
48998;DHT22;34807;51.456;7.244;2022-08-07T15:52:01;29.40;43.50
48998;DHT22;34807;51.456;7.244;2022-08-07T15:54:33;29.40;43.40
48998;DHT22;34807;51.456;7.244;2022-08-07T15:57:01;29.40;43.30
48998;DHT22;34807;51.456;7.244;2022-08-07T15:59:27;29.50;43.20
48998;DHT22;34807;51.456;7.244;2022-08-07T16:01:54;29.60;42.30
48998;DHT22;34807;51.456;7.244;2022-08-07T16:04:20;29.70;42.90
48998;DHT22;34807;51.456;7.244;2022-08-07T16:06:51;29.80;42.20
48998;DHT22;34807;51.456;7.244;2022-08-07T16:09:22;29.80;41.50
48998;DHT22;34807;51.456;7.244;2022-08-07T16:12:08;29.80;41.90
48998;DHT22;34807;51.456;7.244;2022-08-07T16:25:49;30.10;43.20
48998;DHT22;34807;51.456;7.244;2022-08-07T16:30:50;30.30;42.00
48998;DHT22;34807;51.456;7.244;2022-08-07T16:33:18;30.50;42.20
48998;DHT22;34807;51.456;7.244;2022-08-07T16:35:59;30.60;41.60
48998;DHT22;34807;51.456;7.244;2022-08-07T16:51:14;30.50;42.10
48998;DHT22;34807;51.456;7.244;2022-08-07T16:56:23;29.90;43.50
48998;DHT22;34807;51.456;7.244;2022-08-07T17:04:22;29.00;46.70
48998;DHT22;34807;51.456;7.244;2022-08-07T17:06:54;28.70;46.60
48998;DHT22;34807;51.456;7.244;2022-08-07T17:12:14;28.30;48.20
48998;DHT22;34807;51.456;7.244;2022-08-07T17:14:42;28.10;48.60
48998;DHT22;34807;51.456;7.244;2022-08-07T17:17:55;28.00;46.30
48998;DHT22;34807;51.456;7.244;2022-08-07T17:19:59;27.80;48.40
48998;DHT22;34807;51.456;7.244;2022-08-07T17:22:37;27.60;47.50
48998;DHT22;34807;51.456;7.244;2022-08-07T17:25:19;27.50;48.90
48998;DHT22;34807;51.456;7.244;2022-08-07T17:30:14;27.30;49.20
48998;DHT22;34807;51.456;7.244;2022-08-07T17:35:27;27.10;46.90
48998;DHT22;34807;51.456;7.244;2022-08-07T17:41:01;26.90;49.70
48998;DHT22;34807;51.456;7.244;2022-08-07T17:43:51;26.90;49.80
48998;DHT22;34807;51.456;7.244;2022-08-07T17:46:16;26.80;50.00
48998;DHT22;34807;51.456;7.244;2022-08-07T17:49:05;26.70;50.00
48998;DHT22;34807;51.456;7.244;2022-08-07T17:51:37;26.70;49.80
48998;DHT22;34807;51.456;7.244;2022-08-07T17:54:19;26.60;49.90
48998;DHT22;34807;51.456;7.244;2022-08-07T17:59:27;26.40;49.90
48998;DHT22;34807;51.456;7.244;2022-08-07T18:09:27;26.10;50.10
48998;DHT22;34807;51.456;7.244;2022-08-07T18:12:01;26.00;50.20
48998;DHT22;34807;51.456;7.244;2022-08-07T18:17:09;25.90;50.50
48998;DHT22;34807;51.456;7.244;2022-08-07T18:19:38;25.80;50.40
48998;DHT22;34807;51.456;7.244;2022-08-07T18:27:23;25.60;50.80
48998;DHT22;34807;51.456;7.244;2022-08-07T18:30:04;25.60;50.90
48998;DHT22;34807;51.456;7.244;2022-08-07T18:35:07;25.50;51.30
48998;DHT22;34807;51.456;7.244;2022-08-07T18:37:44;25.40;51.10
48998;DHT22;34807;51.456;7.244;2022-08-07T18:43:04;25.30;51.60
48998;DHT22;34807;51.456;7.244;2022-08-07T18:48:59;25.10;51.50
48998;DHT22;34807;51.456;7.244;2022-08-07T18:56:44;24.90;51.90
48998;DHT22;34807;51.456;7.244;2022-08-07T19:02:05;24.80;52.20
48998;DHT22;34807;51.456;7.244;2022-08-07T19:07:03;24.60;52.50
48998;DHT22;34807;51.456;7.244;2022-08-07T19:12:22;24.50;52.70
48998;DHT22;34807;51.456;7.244;2022-08-07T19:20:18;24.30;53.10
48998;DHT22;34807;51.456;7.244;2022-08-07T19:25:14;24.10;53.20
48998;DHT22;34807;51.456;7.244;2022-08-07T19:27:41;24.10;53.40
48998;DHT22;34807;51.456;7.244;2022-08-07T19:30:11;24.10;53.50
48998;DHT22;34807;51.456;7.244;2022-08-07T19:32:37;24.00;53.60
48998;DHT22;34807;51.456;7.244;2022-08-07T19:35:25;23.90;53.70
48998;DHT22;34807;51.456;7.244;2022-08-07T19:37:54;23.90;53.80
48998;DHT22;34807;51.456;7.244;2022-08-07T19:40:20;23.80;53.90
48998;DHT22;34807;51.456;7.244;2022-08-07T19:42:46;23.80;54.00
48998;DHT22;34807;51.456;7.244;2022-08-07T19:45:19;23.70;54.10
48998;DHT22;34807;51.456;7.244;2022-08-07T19:47:49;23.60;54.10
48998;DHT22;34807;51.456;7.244;2022-08-07T19:50:15;23.60;54.20
48998;DHT22;34807;51.456;7.244;2022-08-07T19:52:41;23.50;54.30
48998;DHT22;34807;51.456;7.244;2022-08-07T19:55:07;23.40;54.30
48998;DHT22;34807;51.456;7.244;2022-08-07T19:57:42;23.40;54.40